TimePST,TemperatureF,Dew PointF,Humidity,Sea Level PressureIn,VisibilityMPH,Wind Direction,Wind SpeedMPH,Gust SpeedMPH,PrecipitationIn,Events,Conditions,WindDirDegrees,DateUTC
12:56 AM,50.0,28.0,43,30.17,10.0,Calm,Calm,-,N/A,,Clear,0,2013-12-30 08:56:00
1:56 AM,45.9,32.0,58,30.17,10.0,Calm,Calm,-,N/A,,Clear,0,2013-12-30 09:56:00
2:56 AM,45.9,32.9,61,30.18,10.0,Calm,Calm,-,N/A,,Clear,0,2013-12-30 10:56:00
3:56 AM,43.9,32.0,63,30.18,10.0,Calm,Calm,-,N/A,,Clear,0,2013-12-30 11:56:00
4:56 AM,43.9,32.0,63,30.17,10.0,Calm,Calm,-,N/A,,Clear,0,2013-12-30 12:56:00
5:56 AM,43.0,32.0,65,30.18,10.0,Calm,Calm,-,N/A,,Clear,0,2013-12-30 13:56:00
6:56 AM,46.9,28.0,48,30.18,10.0,Variable,4.6,-,N/A,,Clear,0,2013-12-30 14:56:00
7:56 AM,47.8,28.0,46,30.18,10.0,Variable,4.6,-,N/A,,Clear,0,2013-12-30 15:56:00
8:56 AM,47.8,31.1,52,30.20,10.0,East,5.8,-,N/A,,Clear,90,2013-12-30 16:56:00
9:56 AM,47.8,34.0,59,30.22,10.0,East,4.6,-,N/A,,Clear,80,2013-12-30 17:56:00
10:56 AM,57.9,29.1,33,30.23,10.0,Variable,4.6,-,N/A,,Clear,0,2013-12-30 18:56:00
11:56 AM,61.9,23.0,23,30.24,10.0,South,5.8,-,N/A,,Clear,170,2013-12-30 19:56:00
12:56 PM,61.0,26.1,26,30.20,10.0,Variable,5.8,-,N/A,,Clear,0,2013-12-30 20:56:00
1:56 PM,59.0,27.1,30,30.19,10.0,SSE,5.8,-,N/A,,Clear,150,2013-12-30 21:56:00
2:56 PM,57.9,27.1,31,30.20,10.0,South,5.8,-,N/A,,Clear,170,2013-12-30 22:56:00
3:56 PM,55.9,28.0,34,30.23,10.0,Calm,Calm,-,N/A,,Clear,0,2013-12-30 23:56:00
4:56 PM,52.0,34.0,50,30.22,10.0,Calm,Calm,-,N/A,,Clear,0,2013-12-31 00:56:00
5:56 PM,48.9,31.1,50,30.22,10.0,Calm,Calm,-,N/A,,Clear,0,2013-12-31 01:56:00
6:56 PM,47.8,30.0,50,30.23,10.0,Calm,Calm,-,N/A,,Clear,0,2013-12-31 02:56:00
7:56 PM,45.9,34.0,63,30.24,10.0,Variable,4.6,-,N/A,,Clear,0,2013-12-31 03:56:00
8:56 PM,45.0,36.0,71,30.24,10.0,Calm,Calm,-,N/A,,Clear,0,2013-12-31 04:56:00
9:56 PM,45.0,34.9,68,30.25,10.0,East,3.5,-,N/A,,Clear,100,2013-12-31 05:56:00
10:56 PM,43.0,34.9,73,30.25,10.0,East,4.6,-,N/A,,Clear,80,2013-12-31 06:56:00
11:56 PM,43.9,36.0,74,30.25,10.0,Calm,Calm,-,N/A,,Clear,0,2013-12-31 07:56:00